createdAt,value
2022-08-20T00:02:14.390Z,40.27
2022-08-20T00:04:45.251Z,40.78
2022-08-20T00:07:14.455Z,40.95
2022-08-20T00:09:43.039Z,41.33
2022-08-20T00:12:13.123Z,41.62
2022-08-20T00:14:40.821Z,41.67
2022-08-20T00:17:08.628Z,41.83
2022-08-20T00:19:36.375Z,42.03
2022-08-20T00:22:07.064Z,42.57
2022-08-20T00:24:37.228Z,42.29
2022-08-20T00:27:04.772Z,42.58
2022-08-20T00:29:32.357Z,42.73
2022-08-20T00:31:59.860Z,42.98
2022-08-20T00:34:28.340Z,43.08
2022-08-20T00:36:55.985Z,43.22
2022-08-20T00:39:23.523Z,43.21
2022-08-20T00:41:52.129Z,43.47
2022-08-20T00:44:22.867Z,43.86
2022-08-20T00:46:52.164Z,43.75
2022-08-20T00:49:25.016Z,43.98
2022-08-20T00:52:15.787Z,44.51
2022-08-20T00:54:57.257Z,44.71
2022-08-20T00:57:58.910Z,44.16
2022-08-20T01:00:29.848Z,44.35
2022-08-20T01:02:58.289Z,44.11
2022-08-20T01:05:27.873Z,44.39
2022-08-20T01:07:58.572Z,44.54
2022-08-20T01:10:35.048Z,45.45
2022-08-20T01:13:11.588Z,45.34
2022-08-20T01:15:43.432Z,45.22
2022-08-20T01:18:19.617Z,45.55
2022-08-20T01:20:54.519Z,45.26
2022-08-20T01:23:40.658Z,45.42
2022-08-20T01:26:12.662Z,45.74
2022-08-20T01:28:44.850Z,45.76
2022-08-20T01:31:20.043Z,45.75
2022-08-20T01:33:53.040Z,45.57
2022-08-20T01:36:30.457Z,46.13
2022-08-20T01:39:02.270Z,45.89
2022-08-20T01:41:47.439Z,46.16
2022-08-20T01:44:18.306Z,45.69
2022-08-20T01:46:48.542Z,45.85
2022-08-20T01:49:30.115Z,46.41
2022-08-20T01:52:01.146Z,46.32
2022-08-20T01:54:28.820Z,45.99
2022-08-20T01:57:05.652Z,45.98
2022-08-20T01:59:33.273Z,45.99
2022-08-20T02:02:02.627Z,45.73
2022-08-20T02:04:31.349Z,45.88
2022-08-20T02:07:01.507Z,46.01
2022-08-20T02:09:32.169Z,45.75
2022-08-20T02:12:00.070Z,45.63
2022-08-20T02:14:28.105Z,45.60
2022-08-20T02:16:58.685Z,45.56
2022-08-20T02:19:32.638Z,45.96
2022-08-20T02:22:03.768Z,45.68
2022-08-20T02:24:31.315Z,45.76
2022-08-20T02:26:58.996Z,45.64
2022-08-20T02:29:37.989Z,45.57
2022-08-20T02:32:25.066Z,45.76
2022-08-20T02:34:55.317Z,45.58
2022-08-20T02:37:22.831Z,45.71
2022-08-20T02:39:50.484Z,45.68
2022-08-20T02:42:18.251Z,45.47
2022-08-20T02:44:45.747Z,45.67
2022-08-20T02:47:13.408Z,45.42
2022-08-20T02:49:40.961Z,45.47
2022-08-20T02:52:08.604Z,45.35
2022-08-20T02:54:36.326Z,45.24
2022-08-20T02:57:04.744Z,45.32
2022-08-20T02:59:32.250Z,45.65
2022-08-20T03:02:00.882Z,45.76
2022-08-20T03:04:31.948Z,45.83
2022-08-20T03:06:59.946Z,45.56
2022-08-20T03:09:27.553Z,45.36
2022-08-20T03:12:01.002Z,45.32
2022-08-20T03:14:29.082Z,45.12
2022-08-20T03:16:59.435Z,45.17
2022-08-20T03:19:27.614Z,45.36
2022-08-20T03:21:55.134Z,45.43
2022-08-20T03:24:24.950Z,45.29
2022-08-20T03:26:52.487Z,45.07
2022-08-20T03:29:20.046Z,45.29
2022-08-20T03:31:47.842Z,45.03
2022-08-20T03:34:15.447Z,45.06
2022-08-20T03:36:45.878Z,45.06
2022-08-20T03:39:13.579Z,44.94
2022-08-20T03:41:41.110Z,45.17
2022-08-20T03:44:08.706Z,45.14
2022-08-20T03:46:36.201Z,44.81
2022-08-20T03:49:03.990Z,45.00
2022-08-20T03:51:43.456Z,44.96
2022-08-20T03:54:22.882Z,45.04
2022-08-20T03:56:50.450Z,44.72
2022-08-20T03:59:17.940Z,44.71
2022-08-20T04:01:46.691Z,44.65
2022-08-20T04:04:15.391Z,44.38
2022-08-20T04:06:43.389Z,44.29
2022-08-20T04:09:12.325Z,43.53
2022-08-20T04:11:41.466Z,43.68
2022-08-20T04:14:11.180Z,43.54
2022-08-20T04:16:40.577Z,43.50
2022-08-20T04:19:08.714Z,43.84
2022-08-20T04:21:39.680Z,43.94
2022-08-20T04:24:07.425Z,43.89
2022-08-20T04:26:36.487Z,43.73
2022-08-20T04:29:04.626Z,43.42
2022-08-20T04:31:35.299Z,43.37
2022-08-20T04:34:08.001Z,43.02
2022-08-20T04:36:35.997Z,42.68
2022-08-20T04:39:04.025Z,42.45
2022-08-20T04:41:31.527Z,41.84
2022-08-20T04:43:59.049Z,41.39
2022-08-20T04:46:29.376Z,41.24
2022-08-20T04:48:57.789Z,40.99
2022-08-20T04:51:25.303Z,40.74
2022-08-20T04:53:56.496Z,40.74
2022-08-20T04:56:29.828Z,40.66
2022-08-20T04:59:00.664Z,40.33
2022-08-20T05:01:29.403Z,40.15
2022-08-20T05:03:58.286Z,40.14
2022-08-20T05:06:29.687Z,40.28
2022-08-20T05:08:59.713Z,40.39
2022-08-20T05:11:35.226Z,40.44
2022-08-20T05:14:07.781Z,40.53
2022-08-20T05:16:40.725Z,40.55
2022-08-20T05:19:11.368Z,40.59
2022-08-20T05:21:39.868Z,40.47
2022-08-20T05:24:10.219Z,40.30
2022-08-20T05:26:37.861Z,40.39
2022-08-20T05:29:07.004Z,40.26
2022-08-20T05:31:35.363Z,40.10
2022-08-20T05:34:11.091Z,40.36
2022-08-20T05:36:53.114Z,40.44
2022-08-20T05:39:23.590Z,40.20
2022-08-20T05:41:51.554Z,40.29
2022-08-20T05:44:19.930Z,40.13
2022-08-20T05:46:48.004Z,40.00
2022-08-20T05:49:22.631Z,39.88
2022-08-20T05:51:51.516Z,40.06
2022-08-20T05:54:19.445Z,39.91
2022-08-20T05:56:47.090Z,39.82
2022-08-20T05:59:14.669Z,39.74
2022-08-20T06:01:43.023Z,39.63
2022-08-20T06:04:31.918Z,39.67
2022-08-20T06:07:05.965Z,39.33
2022-08-20T06:09:33.749Z,39.13
2022-08-20T06:12:06.715Z,38.97
2022-08-20T06:14:35.297Z,38.64
2022-08-20T06:17:13.496Z,38.26
2022-08-20T06:19:44.745Z,37.49
2022-08-20T06:22:21.332Z,37.28
2022-08-20T06:24:51.317Z,37.05
2022-08-20T06:27:21.824Z,36.71
2022-08-20T06:29:50.896Z,36.51
2022-08-20T06:32:32.514Z,36.55
2022-08-20T06:35:06.243Z,35.99
2022-08-20T06:37:36.908Z,36.02
2022-08-20T06:40:12.705Z,35.95
2022-08-20T06:42:47.898Z,35.62
2022-08-20T06:45:19.874Z,35.04
2022-08-20T06:47:48.255Z,35.08
2022-08-20T06:50:19.687Z,35.18
2022-08-20T06:52:51.992Z,35.10
2022-08-20T06:55:24.023Z,35.25
2022-08-20T06:58:03.679Z,34.50
2022-08-20T07:00:33.059Z,34.00
2022-08-20T07:03:05.016Z,32.69
2022-08-20T07:05:35.910Z,30.93
2022-08-20T07:08:04.732Z,29.75
2022-08-20T07:10:32.639Z,29.51
2022-08-20T07:13:00.903Z,29.64
2022-08-20T07:15:29.168Z,30.02
2022-08-20T07:18:01.498Z,30.04
2022-08-20T07:20:31.766Z,30.35
2022-08-20T07:23:00.746Z,30.29
2022-08-20T07:25:29.128Z,30.67
2022-08-20T07:28:09.192Z,31.20
2022-08-20T07:30:55.808Z,31.08
2022-08-20T07:33:26.313Z,31.61
2022-08-20T07:36:00.423Z,31.33
2022-08-20T07:38:30.310Z,31.41
2022-08-20T07:41:05.106Z,31.21
2022-08-20T07:43:33.276Z,31.43
2022-08-20T07:46:03.200Z,31.60
2022-08-20T07:48:32.155Z,31.56
2022-08-20T07:51:03.843Z,31.72
2022-08-20T07:53:35.922Z,31.73
2022-08-20T07:56:13.530Z,31.54
2022-08-20T07:58:50.442Z,31.45
2022-08-20T08:01:20.181Z,31.26
2022-08-20T08:03:50.170Z,31.39
2022-08-20T08:06:29.554Z,31.72
2022-08-20T08:09:04.862Z,31.69
2022-08-20T08:11:34.997Z,32.01
2022-08-20T08:14:06.406Z,32.05
2022-08-20T08:16:35.308Z,32.46
2022-08-20T08:19:07.810Z,32.59
2022-08-20T08:21:35.751Z,32.85
2022-08-20T08:24:05.799Z,32.78
2022-08-20T08:26:35.790Z,32.40
2022-08-20T08:29:05.369Z,32.69
2022-08-20T08:31:35.307Z,32.92
2022-08-20T08:34:02.895Z,33.25
2022-08-20T08:36:30.867Z,33.14
2022-08-20T08:38:58.431Z,32.93
2022-08-20T08:41:36.590Z,33.26
2022-08-20T08:44:08.366Z,33.42
2022-08-20T08:46:41.233Z,33.16
2022-08-20T08:49:16.610Z,33.54
2022-08-20T08:51:56.176Z,33.80
2022-08-20T08:54:27.616Z,33.88
2022-08-20T08:56:59.707Z,34.11
2022-08-20T08:59:52.235Z,34.05
2022-08-20T09:02:23.064Z,34.50
2022-08-20T09:04:51.758Z,34.35
2022-08-20T09:07:20.503Z,34.47
2022-08-20T09:09:48.197Z,34.49
2022-08-20T09:12:22.340Z,34.60
2022-08-20T09:14:51.370Z,34.61
2022-08-20T09:17:22.126Z,35.01
2022-08-20T09:19:52.284Z,35.06
2022-08-20T09:22:22.994Z,35.30
2022-08-20T09:24:51.151Z,35.48
2022-08-20T09:27:19.170Z,36.25
2022-08-20T09:29:49.259Z,36.16
2022-08-20T09:32:20.916Z,37.18
2022-08-20T09:34:56.393Z,37.38
2022-08-20T09:37:26.403Z,37.52
2022-08-20T09:39:54.246Z,38.51
2022-08-20T09:42:25.319Z,39.31
2022-08-20T09:44:53.345Z,38.89
2022-08-20T09:47:21.029Z,39.09
2022-08-20T09:49:48.671Z,39.43
2022-08-20T09:52:28.125Z,40.08
2022-08-20T09:55:16.046Z,39.86
2022-08-20T09:57:44.497Z,39.43
2022-08-20T10:00:12.770Z,39.46
2022-08-20T10:02:41.226Z,39.80
2022-08-20T10:05:12.520Z,39.73
2022-08-20T10:07:43.299Z,39.96
2022-08-20T10:10:14.203Z,40.89
2022-08-20T10:12:42.251Z,40.89
2022-08-20T10:15:10.904Z,41.07
2022-08-20T10:17:42.989Z,42.00
2022-08-20T10:20:13.506Z,41.30
2022-08-20T10:22:41.494Z,41.40
2022-08-20T10:25:09.798Z,41.34
2022-08-20T10:27:38.333Z,41.17
2022-08-20T10:30:09.626Z,41.46
2022-08-20T10:32:37.333Z,40.99
2022-08-20T10:35:05.262Z,40.79
2022-08-20T10:37:34.802Z,40.60
2022-08-20T10:40:02.681Z,40.69
2022-08-20T10:42:30.696Z,40.71
2022-08-20T10:44:58.227Z,40.48
2022-08-20T10:47:28.978Z,40.75
2022-08-20T10:49:58.902Z,40.79
2022-08-20T10:52:27.179Z,41.14
2022-08-20T10:54:55.554Z,41.03
2022-08-20T10:57:26.291Z,41.43
2022-08-20T10:59:56.645Z,41.60
2022-08-20T11:02:25.167Z,41.57
2022-08-20T11:04:53.395Z,40.82
2022-08-20T11:08:00.233Z,41.16
2022-08-20T11:10:14.038Z,40.92
2022-08-20T11:12:44.853Z,40.45
2022-08-20T11:15:15.645Z,40.29
2022-08-20T11:17:44.511Z,39.78
2022-08-20T11:20:14.226Z,39.97
2022-08-20T11:22:42.006Z,39.87
2022-08-20T11:25:09.986Z,39.78
2022-08-20T11:27:42.575Z,39.93
2022-08-20T11:30:14.081Z,39.15
2022-08-20T11:32:42.119Z,38.87
2022-08-20T11:35:38.852Z,38.38
2022-08-20T11:37:59.262Z,38.06
2022-08-20T11:40:27.954Z,37.96
2022-08-20T11:43:15.557Z,37.98
2022-08-20T11:45:49.816Z,37.67
2022-08-20T11:48:18.249Z,37.32
2022-08-20T11:50:46.625Z,37.18
2022-08-20T11:53:14.855Z,37.11
2022-08-20T11:55:43.630Z,37.07
2022-08-20T11:58:11.319Z,36.96
2022-08-20T12:00:41.273Z,36.47
2022-08-20T12:03:10.287Z,36.67
2022-08-20T12:05:41.757Z,36.72
2022-08-20T12:08:09.384Z,36.67
2022-08-20T12:10:38.768Z,36.69
2022-08-20T12:13:07.358Z,36.42
2022-08-20T12:15:40.073Z,36.08
2022-08-20T12:18:08.869Z,36.24
2022-08-20T12:20:37.845Z,36.08
2022-08-20T12:23:05.691Z,35.62
2022-08-20T12:25:34.012Z,35.02
2022-08-20T12:28:01.845Z,34.51
2022-08-20T12:30:29.467Z,34.32
2022-08-20T12:32:57.312Z,33.66
2022-08-20T12:35:26.397Z,33.17
2022-08-20T12:37:53.931Z,32.72
2022-08-20T12:40:32.429Z,32.88
2022-08-20T12:43:02.531Z,32.59
2022-08-20T12:45:31.305Z,32.84
2022-08-20T12:48:13.176Z,32.92
2022-08-20T12:50:43.503Z,32.72
2022-08-20T12:53:11.106Z,32.96
2022-08-20T12:55:38.700Z,33.02
2022-08-20T12:58:09.075Z,33.02
2022-08-20T13:00:43.102Z,33.13
2022-08-20T13:03:12.933Z,32.77
2022-08-20T13:05:41.341Z,32.76
2022-08-20T13:08:10.979Z,32.67
2022-08-20T13:10:44.506Z,32.44
2022-08-20T13:13:14.346Z,32.20
2022-08-20T13:15:42.115Z,32.11
2022-08-20T13:18:09.733Z,31.85
2022-08-20T13:20:37.475Z,31.98
2022-08-20T13:23:05.723Z,31.79
2022-08-20T13:28:06.390Z,31.76
2022-08-20T13:30:41.083Z,31.62
2022-08-20T13:33:08.814Z,31.99
2022-08-20T13:35:36.454Z,31.92
2022-08-20T13:38:13.287Z,31.71
2022-08-20T13:40:40.821Z,31.64
2022-08-20T13:43:08.166Z,31.69
2022-08-20T13:45:40.195Z,31.78
2022-08-20T13:48:14.675Z,32.02
2022-08-20T13:50:47.160Z,32.20
2022-08-20T13:53:18.412Z,32.41
2022-08-20T13:58:14.054Z,32.79
2022-08-20T14:00:42.154Z,32.99
2022-08-20T14:03:09.848Z,33.12
2022-08-20T14:05:38.494Z,33.13
2022-08-20T14:08:18.473Z,33.72
2022-08-20T14:10:50.473Z,33.53
2022-08-20T14:13:21.567Z,33.73
2022-08-20T14:15:49.916Z,33.98
2022-08-20T14:18:17.673Z,34.07
2022-08-20T14:20:45.728Z,34.48
2022-08-20T14:23:14.448Z,34.34
2022-08-20T14:25:46.025Z,34.30
2022-08-20T14:28:18.572Z,34.95
2022-08-20T14:30:53.054Z,34.79
2022-08-20T14:33:22.457Z,34.47
2022-08-20T14:35:50.128Z,34.62
2022-08-20T14:38:20.823Z,34.50
2022-08-20T14:40:50.473Z,34.55
2022-08-20T14:43:19.738Z,34.61
2022-08-20T14:45:47.257Z,34.51
2022-08-20T14:48:15.150Z,34.53
2022-08-20T14:50:43.032Z,34.56
2022-08-20T14:53:10.659Z,34.38
2022-08-20T14:55:38.564Z,34.44
2022-08-20T14:58:11.355Z,34.51
2022-08-20T15:00:39.027Z,34.41
2022-08-20T15:03:06.593Z,34.40
2022-08-20T15:05:35.273Z,34.37
2022-08-20T15:08:10.018Z,34.18
2022-08-20T15:10:39.270Z,34.20
2022-08-20T15:13:09.504Z,34.17
2022-08-20T15:15:40.722Z,33.96
2022-08-20T15:18:08.465Z,34.04
2022-08-20T15:20:39.104Z,33.87
2022-08-20T15:23:06.960Z,33.79
2022-08-20T15:25:37.342Z,33.88
2022-08-20T15:28:15.217Z,33.67
2022-08-20T15:30:45.313Z,33.59
2022-08-20T15:33:13.026Z,33.39
2022-08-20T15:35:40.690Z,33.34
2022-08-20T15:38:10.441Z,33.38
2022-08-20T15:40:38.029Z,33.19
2022-08-20T15:43:06.825Z,33.26
2022-08-20T15:45:35.675Z,33.09
2022-08-20T15:48:11.958Z,32.96
2022-08-20T15:50:47.633Z,33.00
2022-08-20T15:53:23.109Z,32.63
2022-08-20T15:56:03.354Z,32.76
2022-08-20T15:58:58.918Z,32.68
2022-08-20T16:01:47.653Z,32.63
2022-08-20T16:04:52.377Z,32.75
2022-08-20T16:07:55.181Z,32.86
2022-08-20T16:10:47.983Z,32.88
2022-08-20T16:13:52.534Z,32.86
2022-08-20T16:16:36.390Z,32.84
2022-08-20T16:19:06.274Z,32.89
2022-08-20T16:21:37.266Z,33.21
2022-08-20T16:24:07.175Z,33.11
2022-08-20T16:27:13.512Z,33.14
2022-08-20T16:29:46.423Z,33.24
2022-08-20T16:32:31.690Z,33.14
2022-08-20T16:35:09.358Z,33.21
2022-08-20T16:37:52.205Z,33.24
2022-08-20T16:40:28.424Z,33.17
2022-08-20T16:42:59.620Z,33.25
2022-08-20T16:45:31.428Z,33.40
2022-08-20T16:48:06.851Z,33.43
2022-08-20T16:50:38.366Z,33.35
2022-08-20T16:53:10.296Z,33.62
2022-08-20T16:55:37.853Z,33.62
2022-08-20T16:58:07.972Z,33.69
2022-08-20T17:00:42.534Z,33.75
2022-08-20T17:03:39.423Z,33.93
2022-08-20T17:06:27.283Z,33.80
2022-08-20T17:08:55.685Z,34.14
2022-08-20T17:11:33.152Z,33.81
2022-08-20T17:14:08.810Z,34.01
2022-08-20T17:16:45.904Z,33.88
2022-08-20T17:19:20.166Z,33.93
2022-08-20T17:21:50.264Z,33.86
2022-08-20T17:24:26.058Z,34.73
2022-08-20T17:27:10.846Z,33.93
2022-08-20T17:29:50.402Z,34.00
2022-08-20T17:32:28.246Z,33.92
2022-08-20T17:34:59.626Z,34.12
2022-08-20T17:37:33.473Z,33.87
2022-08-20T17:40:47.199Z,33.97
2022-08-20T17:43:44.730Z,33.92
2022-08-20T17:46:18.992Z,34.00
2022-08-20T17:48:51.760Z,33.84
2022-08-20T17:51:23.858Z,33.99
2022-08-20T17:54:18.748Z,33.90
2022-08-20T17:56:53.746Z,34.12
2022-08-20T18:00:00.895Z,34.60
2022-08-20T18:02:28.318Z,34.19
2022-08-20T18:04:57.295Z,34.22
2022-08-20T18:07:40.732Z,34.08
2022-08-20T18:10:14.522Z,34.14
2022-08-20T18:12:51.053Z,34.16
2022-08-20T18:15:24.144Z,34.37
2022-08-20T18:18:07.882Z,34.51
2022-08-20T18:21:03.066Z,34.47
2022-08-20T18:23:52.155Z,34.47
2022-08-20T18:26:26.571Z,34.63
2022-08-20T18:29:07.947Z,34.50
2022-08-20T18:31:52.191Z,34.56
2022-08-20T18:34:40.094Z,35.05
2022-08-20T18:37:25.485Z,35.61
2022-08-20T18:39:53.294Z,35.02
2022-08-20T18:42:26.161Z,34.64
2022-08-20T18:44:55.307Z,35.06
2022-08-20T18:47:33.312Z,35.02
2022-08-20T18:50:15.734Z,34.85
2022-08-20T18:52:51.926Z,35.19
2022-08-20T18:55:33.789Z,34.94
2022-08-20T18:58:08.544Z,34.86
2022-08-20T19:00:48.582Z,35.00
2022-08-20T19:03:39.181Z,34.92
2022-08-20T19:06:15.658Z,34.67
2022-08-20T19:09:05.894Z,34.92
2022-08-20T19:11:49.935Z,34.92
2022-08-20T19:14:17.393Z,35.11
2022-08-20T19:16:52.812Z,35.31
2022-08-20T19:19:23.731Z,35.14
2022-08-20T19:21:52.661Z,35.49
2022-08-20T19:24:26.675Z,35.24
2022-08-20T19:26:57.579Z,35.54
2022-08-20T19:29:33.781Z,35.70
2022-08-20T19:32:06.774Z,35.93
2022-08-20T19:34:34.971Z,35.68
2022-08-20T19:37:35.762Z,36.15
2022-08-20T19:40:28.304Z,36.48
2022-08-20T19:42:59.544Z,36.20
2022-08-20T19:45:37.404Z,36.27
2022-08-20T19:48:10.565Z,36.21
2022-08-20T19:50:58.486Z,36.44
2022-08-20T19:53:31.957Z,36.29
2022-08-20T19:56:03.455Z,36.45
2022-08-20T19:58:32.653Z,36.61
2022-08-20T20:01:02.460Z,36.76
2022-08-20T20:03:35.055Z,36.84
2022-08-20T20:06:17.162Z,37.21
2022-08-20T20:09:00.050Z,37.05
2022-08-20T20:11:37.489Z,37.39
2022-08-20T20:14:14.223Z,37.17
2022-08-20T20:16:45.767Z,37.30
2022-08-20T20:19:30.142Z,37.25
2022-08-20T20:22:20.338Z,37.49
2022-08-20T20:25:00.580Z,37.56
2022-08-20T20:27:29.155Z,37.55
2022-08-20T20:30:02.473Z,37.68
2022-08-20T20:32:34.076Z,37.79
2022-08-20T20:35:05.046Z,37.73
2022-08-20T20:37:50.865Z,37.53
2022-08-20T20:40:26.028Z,37.66
2022-08-20T20:42:58.303Z,37.62
2022-08-20T20:45:34.067Z,37.62
2022-08-20T20:48:40.166Z,37.68
2022-08-20T20:51:23.006Z,37.55
2022-08-20T20:53:54.679Z,37.49
2022-08-20T20:56:28.344Z,38.10
2022-08-20T20:58:56.459Z,37.80
2022-08-20T21:01:34.499Z,37.63
2022-08-20T21:04:12.422Z,37.54
2022-08-20T21:06:40.205Z,37.43
2022-08-20T21:09:08.362Z,37.49
2022-08-20T21:11:36.418Z,37.32
2022-08-20T21:14:04.033Z,37.25
2022-08-20T21:16:31.735Z,37.34
2022-08-20T21:18:59.243Z,37.38
2022-08-20T21:21:26.829Z,37.19
2022-08-20T21:23:54.489Z,37.10
2022-08-20T21:26:22.573Z,37.46
2022-08-20T21:28:50.322Z,37.08
2022-08-20T21:31:19.656Z,37.14
2022-08-20T21:33:47.354Z,37.19
2022-08-20T21:36:15.128Z,37.07
2022-08-20T21:38:43.074Z,37.07
2022-08-20T21:41:10.899Z,37.07
2022-08-20T21:43:38.797Z,37.11
2022-08-20T21:46:09.271Z,37.02
2022-08-20T21:48:43.233Z,37.12
2022-08-20T21:51:14.003Z,37.38
2022-08-20T21:53:41.632Z,37.18
2022-08-20T21:56:10.548Z,36.86
2022-08-20T21:58:40.859Z,37.04
2022-08-20T22:01:09.499Z,36.84
2022-08-20T22:03:38.944Z,36.85
2022-08-20T22:06:12.801Z,36.92
2022-08-20T22:08:40.959Z,36.73
2022-08-20T22:11:10.784Z,37.00
2022-08-20T22:13:39.822Z,37.02
2022-08-20T22:16:09.710Z,36.80
2022-08-20T22:18:37.447Z,36.82
2022-08-20T22:21:12.185Z,37.13
2022-08-20T22:23:42.837Z,36.90
2022-08-20T22:26:10.592Z,37.04
2022-08-20T22:28:38.932Z,36.96
2022-08-20T22:31:06.896Z,37.05
2022-08-20T22:33:35.214Z,37.24
2022-08-20T22:36:05.028Z,37.44
2022-08-20T22:38:32.974Z,36.94
2022-08-20T22:41:07.668Z,37.03
2022-08-20T22:43:46.290Z,37.08
2022-08-20T22:46:28.525Z,37.44
2022-08-20T22:48:56.960Z,37.28
2022-08-20T22:51:30.449Z,37.00
2022-08-20T22:53:59.318Z,37.31
2022-08-20T22:56:27.443Z,37.15
2022-08-20T22:58:59.530Z,36.80
2022-08-20T23:01:28.758Z,37.42
2022-08-20T23:04:22.934Z,37.61
2022-08-20T23:06:50.944Z,36.96
2022-08-20T23:09:21.170Z,37.00
2022-08-20T23:11:49.507Z,37.13
2022-08-20T23:14:17.214Z,37.23
2022-08-20T23:16:49.567Z,37.88
2022-08-20T23:19:23.591Z,37.46
2022-08-20T23:21:52.035Z,37.50
2022-08-20T23:24:20.034Z,37.65
2022-08-20T23:26:52.507Z,37.62
2022-08-20T23:29:25.736Z,37.77
2022-08-20T23:31:59.770Z,38.20
2022-08-20T23:34:27.963Z,38.07
2022-08-20T23:36:57.036Z,38.10
2022-08-20T23:39:25.785Z,37.77
2022-08-20T23:41:54.241Z,37.99
2022-08-20T23:44:26.155Z,38.42
2022-08-20T23:47:01.265Z,38.40
2022-08-20T23:49:29.723Z,38.95
2022-08-20T23:52:00.480Z,38.78
2022-08-20T23:54:29.896Z,38.55
2022-08-20T23:56:57.650Z,38.43
2022-08-20T23:59:25.711Z,38.76
